sensor_id;sensor_type;location;lat;lon;timestamp;P1;durP1;ratioP1;P2;durP2;ratioP2
10469;SDS011;5282;47.052;15.458;2023-07-16T00:00:37;7.00;;;6.60;;
10469;SDS011;5282;47.052;15.458;2023-07-16T00:03:04;7.47;;;7.07;;
10469;SDS011;5282;47.052;15.458;2023-07-16T00:05:31;7.13;;;6.73;;
10469;SDS011;5282;47.052;15.458;2023-07-16T00:07:57;6.73;;;6.43;;
10469;SDS011;5282;47.052;15.458;2023-07-16T00:10:24;6.70;;;6.30;;
10469;SDS011;5282;47.052;15.458;2023-07-16T00:12:52;6.97;;;6.68;;
10469;SDS011;5282;47.052;15.458;2023-07-16T00:15:19;7.33;;;6.93;;
10469;SDS011;5282;47.052;15.458;2023-07-16T00:17:46;7.10;;;6.70;;
10469;SDS011;5282;47.052;15.458;2023-07-16T00:20:15;7.80;;;7.40;;
10469;SDS011;5282;47.052;15.458;2023-07-16T00:22:42;7.60;;;7.10;;
10469;SDS011;5282;47.052;15.458;2023-07-16T00:25:09;7.10;;;6.50;;
10469;SDS011;5282;47.052;15.458;2023-07-16T00:27:36;7.53;;;7.13;;
10469;SDS011;5282;47.052;15.458;2023-07-16T00:30:05;7.40;;;7.00;;
10469;SDS011;5282;47.052;15.458;2023-07-16T00:32:33;7.00;;;6.70;;
10469;SDS011;5282;47.052;15.458;2023-07-16T00:35:00;7.13;;;6.77;;
10469;SDS011;5282;47.052;15.458;2023-07-16T00:37:28;6.97;;;6.67;;
10469;SDS011;5282;47.052;15.458;2023-07-16T00:39:55;7.00;;;6.70;;
10469;SDS011;5282;47.052;15.458;2023-07-16T00:42:22;6.93;;;6.63;;
10469;SDS011;5282;47.052;15.458;2023-07-16T00:44:49;7.27;;;6.97;;
10469;SDS011;5282;47.052;15.458;2023-07-16T00:47:17;7.40;;;6.90;;
10469;SDS011;5282;47.052;15.458;2023-07-16T00:49:44;7.13;;;6.87;;
10469;SDS011;5282;47.052;15.458;2023-07-16T00:52:14;7.57;;;7.00;;
10469;SDS011;5282;47.052;15.458;2023-07-16T00:54:46;7.33;;;6.87;;
10469;SDS011;5282;47.052;15.458;2023-07-16T00:57:14;7.20;;;6.80;;
10469;SDS011;5282;47.052;15.458;2023-07-16T00:59:42;7.20;;;6.90;;
10469;SDS011;5282;47.052;15.458;2023-07-16T01:02:09;7.27;;;6.87;;
10469;SDS011;5282;47.052;15.458;2023-07-16T01:04:38;7.67;;;7.23;;
10469;SDS011;5282;47.052;15.458;2023-07-16T01:07:06;7.63;;;7.07;;
10469;SDS011;5282;47.052;15.458;2023-07-16T01:09:35;6.63;;;6.33;;
10469;SDS011;5282;47.052;15.458;2023-07-16T01:12:07;7.87;;;7.33;;
10469;SDS011;5282;47.052;15.458;2023-07-16T01:14:35;7.43;;;7.13;;
10469;SDS011;5282;47.052;15.458;2023-07-16T01:17:03;8.00;;;7.43;;
10469;SDS011;5282;47.052;15.458;2023-07-16T01:19:32;8.07;;;7.57;;
10469;SDS011;5282;47.052;15.458;2023-07-16T01:22:07;7.50;;;7.00;;
10469;SDS011;5282;47.052;15.458;2023-07-16T01:25:00;7.30;;;6.93;;
10469;SDS011;5282;47.052;15.458;2023-07-16T01:27:44;7.33;;;6.93;;
10469;SDS011;5282;47.052;15.458;2023-07-16T01:30:27;8.00;;;7.60;;
10469;SDS011;5282;47.052;15.458;2023-07-16T01:32:55;7.50;;;7.00;;
10469;SDS011;5282;47.052;15.458;2023-07-16T01:35:23;7.50;;;7.10;;
10469;SDS011;5282;47.052;15.458;2023-07-16T01:37:52;6.77;;;6.47;;
10469;SDS011;5282;47.052;15.458;2023-07-16T01:40:18;7.37;;;7.07;;
10469;SDS011;5282;47.052;15.458;2023-07-16T01:42:45;7.10;;;6.77;;
10469;SDS011;5282;47.052;15.458;2023-07-16T01:45:12;7.47;;;7.07;;
10469;SDS011;5282;47.052;15.458;2023-07-16T01:47:44;7.67;;;7.27;;
10469;SDS011;5282;47.052;15.458;2023-07-16T01:50:21;7.83;;;7.43;;
10469;SDS011;5282;47.052;15.458;2023-07-16T01:52:48;6.97;;;6.67;;
10469;SDS011;5282;47.052;15.458;2023-07-16T01:55:15;7.40;;;7.10;;
10469;SDS011;5282;47.052;15.458;2023-07-16T01:57:42;7.77;;;7.27;;
10469;SDS011;5282;47.052;15.458;2023-07-16T02:00:10;7.57;;;7.27;;
10469;SDS011;5282;47.052;15.458;2023-07-16T02:02:38;7.60;;;7.20;;
10469;SDS011;5282;47.052;15.458;2023-07-16T02:05:07;7.77;;;7.47;;
10469;SDS011;5282;47.052;15.458;2023-07-16T02:07:34;7.70;;;7.20;;
10469;SDS011;5282;47.052;15.458;2023-07-16T02:10:01;7.67;;;7.27;;
10469;SDS011;5282;47.052;15.458;2023-07-16T02:12:29;7.47;;;6.97;;
10469;SDS011;5282;47.052;15.458;2023-07-16T02:14:56;7.67;;;7.17;;
10469;SDS011;5282;47.052;15.458;2023-07-16T02:17:24;7.60;;;7.20;;
10469;SDS011;5282;47.052;15.458;2023-07-16T02:19:52;7.60;;;7.10;;
10469;SDS011;5282;47.052;15.458;2023-07-16T02:22:20;7.57;;;7.00;;
10469;SDS011;5282;47.052;15.458;2023-07-16T02:24:47;7.87;;;7.37;;
10469;SDS011;5282;47.052;15.458;2023-07-16T02:27:13;7.40;;;7.00;;
10469;SDS011;5282;47.052;15.458;2023-07-16T02:29:40;6.73;;;6.43;;
10469;SDS011;5282;47.052;15.458;2023-07-16T02:32:10;7.63;;;7.13;;
10469;SDS011;5282;47.052;15.458;2023-07-16T02:34:37;7.67;;;7.27;;
10469;SDS011;5282;47.052;15.458;2023-07-16T02:37:04;7.93;;;7.33;;
10469;SDS011;5282;47.052;15.458;2023-07-16T02:39:32;7.17;;;6.67;;
10469;SDS011;5282;47.052;15.458;2023-07-16T02:41:59;7.30;;;6.80;;
10469;SDS011;5282;47.052;15.458;2023-07-16T02:44:26;6.97;;;6.57;;
10469;SDS011;5282;47.052;15.458;2023-07-16T02:46:53;6.87;;;6.57;;
10469;SDS011;5282;47.052;15.458;2023-07-16T02:49:20;7.57;;;7.27;;
10469;SDS011;5282;47.052;15.458;2023-07-16T02:51:49;7.40;;;6.93;;
10469;SDS011;5282;47.052;15.458;2023-07-16T02:54:16;7.37;;;6.87;;
10469;SDS011;5282;47.052;15.458;2023-07-16T02:56:44;7.43;;;6.83;;
10469;SDS011;5282;47.052;15.458;2023-07-16T02:59:11;7.07;;;6.73;;
10469;SDS011;5282;47.052;15.458;2023-07-16T03:01:38;7.00;;;6.60;;
10469;SDS011;5282;47.052;15.458;2023-07-16T03:04:04;7.47;;;7.07;;
10469;SDS011;5282;47.052;15.458;2023-07-16T03:06:31;7.37;;;6.93;;
10469;SDS011;5282;47.052;15.458;2023-07-16T03:08:59;7.27;;;6.97;;
10469;SDS011;5282;47.052;15.458;2023-07-16T03:11:26;7.90;;;7.40;;
10469;SDS011;5282;47.052;15.458;2023-07-16T03:13:54;7.03;;;6.63;;
10469;SDS011;5282;47.052;15.458;2023-07-16T03:16:21;7.70;;;7.30;;
10469;SDS011;5282;47.052;15.458;2023-07-16T03:18:48;7.23;;;6.83;;
10469;SDS011;5282;47.052;15.458;2023-07-16T03:21:15;7.97;;;7.47;;
10469;SDS011;5282;47.052;15.458;2023-07-16T03:23:42;7.27;;;6.87;;
10469;SDS011;5282;47.052;15.458;2023-07-16T03:26:09;7.40;;;6.90;;
10469;SDS011;5282;47.052;15.458;2023-07-16T03:28:35;7.67;;;7.17;;
10469;SDS011;5282;47.052;15.458;2023-07-16T03:31:04;7.20;;;6.90;;
10469;SDS011;5282;47.052;15.458;2023-07-16T03:33:33;7.80;;;7.33;;
10469;SDS011;5282;47.052;15.458;2023-07-16T03:36:00;7.07;;;6.67;;
10469;SDS011;5282;47.052;15.458;2023-07-16T03:38:27;7.50;;;7.10;;
10469;SDS011;5282;47.052;15.458;2023-07-16T03:40:54;7.57;;;7.07;;
10469;SDS011;5282;47.052;15.458;2023-07-16T03:43:20;7.70;;;7.30;;
10469;SDS011;5282;47.052;15.458;2023-07-16T03:45:47;7.40;;;7.10;;
10469;SDS011;5282;47.052;15.458;2023-07-16T03:48:17;7.57;;;7.27;;
10469;SDS011;5282;47.052;15.458;2023-07-16T03:50:43;7.80;;;7.30;;
10469;SDS011;5282;47.052;15.458;2023-07-16T03:53:10;6.93;;;6.63;;
10469;SDS011;5282;47.052;15.458;2023-07-16T03:55:37;7.50;;;7.10;;
10469;SDS011;5282;47.052;15.458;2023-07-16T03:58:04;7.53;;;7.13;;
10469;SDS011;5282;47.052;15.458;2023-07-16T04:00:31;7.70;;;7.30;;
10469;SDS011;5282;47.052;15.458;2023-07-16T04:02:58;7.33;;;6.83;;
10469;SDS011;5282;47.052;15.458;2023-07-16T04:05:27;7.97;;;7.53;;
10469;SDS011;5282;47.052;15.458;2023-07-16T04:07:54;7.70;;;7.30;;
10469;SDS011;5282;47.052;15.458;2023-07-16T04:10:21;7.90;;;7.40;;
10469;SDS011;5282;47.052;15.458;2023-07-16T04:12:47;7.40;;;7.10;;
10469;SDS011;5282;47.052;15.458;2023-07-16T04:15:14;8.40;;;7.87;;
10469;SDS011;5282;47.052;15.458;2023-07-16T04:17:42;8.17;;;7.67;;
10469;SDS011;5282;47.052;15.458;2023-07-16T04:20:09;7.10;;;6.80;;
10469;SDS011;5282;47.052;15.458;2023-07-16T04:22:37;7.33;;;6.97;;
10469;SDS011;5282;47.052;15.458;2023-07-16T04:25:05;7.27;;;6.80;;
10469;SDS011;5282;47.052;15.458;2023-07-16T04:27:33;7.20;;;6.90;;
10469;SDS011;5282;47.052;15.458;2023-07-16T04:30:02;7.20;;;6.80;;
10469;SDS011;5282;47.052;15.458;2023-07-16T04:32:30;7.63;;;7.20;;
10469;SDS011;5282;47.052;15.458;2023-07-16T04:34:56;7.27;;;6.97;;
10469;SDS011;5282;47.052;15.458;2023-07-16T04:37:23;7.40;;;7.00;;
10469;SDS011;5282;47.052;15.458;2023-07-16T04:39:52;7.27;;;6.77;;
10469;SDS011;5282;47.052;15.458;2023-07-16T04:42:18;7.50;;;7.10;;
10469;SDS011;5282;47.052;15.458;2023-07-16T04:44:46;7.43;;;7.07;;
10469;SDS011;5282;47.052;15.458;2023-07-16T04:47:12;6.47;;;6.17;;
10469;SDS011;5282;47.052;15.458;2023-07-16T04:49:39;7.33;;;6.97;;
10469;SDS011;5282;47.052;15.458;2023-07-16T04:52:06;7.40;;;7.00;;
10469;SDS011;5282;47.052;15.458;2023-07-16T04:54:36;7.63;;;7.17;;
10469;SDS011;5282;47.052;15.458;2023-07-16T04:57:05;7.33;;;7.03;;
10469;SDS011;5282;47.052;15.458;2023-07-16T04:59:33;7.07;;;6.77;;
10469;SDS011;5282;47.052;15.458;2023-07-16T05:02:01;7.80;;;7.30;;
10469;SDS011;5282;47.052;15.458;2023-07-16T05:04:28;7.67;;;7.27;;
10469;SDS011;5282;47.052;15.458;2023-07-16T05:06:55;7.30;;;6.90;;
10469;SDS011;5282;47.052;15.458;2023-07-16T05:09:22;7.43;;;6.93;;
10469;SDS011;5282;47.052;15.458;2023-07-16T05:11:49;7.03;;;6.67;;
10469;SDS011;5282;47.052;15.458;2023-07-16T05:14:17;7.53;;;7.13;;
10469;SDS011;5282;47.052;15.458;2023-07-16T05:16:47;7.10;;;6.80;;
10469;SDS011;5282;47.052;15.458;2023-07-16T05:19:13;7.43;;;7.00;;
10469;SDS011;5282;47.052;15.458;2023-07-16T05:21:40;7.17;;;6.77;;
10469;SDS011;5282;47.052;15.458;2023-07-16T05:24:07;6.90;;;6.63;;
10469;SDS011;5282;47.052;15.458;2023-07-16T05:26:34;7.70;;;7.30;;
10469;SDS011;5282;47.052;15.458;2023-07-16T05:29:05;7.40;;;7.00;;
10469;SDS011;5282;47.052;15.458;2023-07-16T05:31:33;7.03;;;6.73;;
10469;SDS011;5282;47.052;15.458;2023-07-16T05:34:00;6.87;;;6.50;;
10469;SDS011;5282;47.052;15.458;2023-07-16T05:36:26;7.00;;;6.80;;
10469;SDS011;5282;47.052;15.458;2023-07-16T05:38:53;7.00;;;6.50;;
10469;SDS011;5282;47.052;15.458;2023-07-16T05:41:20;7.33;;;6.93;;
10469;SDS011;5282;47.052;15.458;2023-07-16T05:43:46;7.43;;;6.90;;
10469;SDS011;5282;47.052;15.458;2023-07-16T05:46:13;7.20;;;6.67;;
10469;SDS011;5282;47.052;15.458;2023-07-16T05:48:42;7.80;;;7.30;;
10469;SDS011;5282;47.052;15.458;2023-07-16T05:51:08;6.90;;;6.57;;
10469;SDS011;5282;47.052;15.458;2023-07-16T05:53:35;6.80;;;6.50;;
10469;SDS011;5282;47.052;15.458;2023-07-16T05:56:03;7.00;;;6.70;;
10469;SDS011;5282;47.052;15.458;2023-07-16T05:58:30;7.13;;;6.77;;
10469;SDS011;5282;47.052;15.458;2023-07-16T06:00:57;6.60;;;6.35;;
10469;SDS011;5282;47.052;15.458;2023-07-16T06:03:23;7.13;;;6.80;;
10469;SDS011;5282;47.052;15.458;2023-07-16T06:05:52;7.40;;;6.80;;
10469;SDS011;5282;47.052;15.458;2023-07-16T06:08:19;7.07;;;6.63;;
10469;SDS011;5282;47.052;15.458;2023-07-16T06:10:45;8.10;;;7.60;;
10469;SDS011;5282;47.052;15.458;2023-07-16T06:13:12;7.18;;;6.70;;
10469;SDS011;5282;47.052;15.458;2023-07-16T06:15:39;6.53;;;6.32;;
10469;SDS011;5282;47.052;15.458;2023-07-16T06:18:06;7.57;;;6.97;;
10469;SDS011;5282;47.052;15.458;2023-07-16T06:20:32;7.20;;;6.80;;
10469;SDS011;5282;47.052;15.458;2023-07-16T06:23:01;7.32;;;7.03;;
10469;SDS011;5282;47.052;15.458;2023-07-16T06:25:28;7.10;;;6.80;;
10469;SDS011;5282;47.052;15.458;2023-07-16T06:27:55;7.07;;;6.68;;
10469;SDS011;5282;47.052;15.458;2023-07-16T06:30:24;7.13;;;6.82;;
10469;SDS011;5282;47.052;15.458;2023-07-16T06:32:53;7.13;;;6.82;;
10469;SDS011;5282;47.052;15.458;2023-07-16T06:35:20;6.68;;;6.20;;
10469;SDS011;5282;47.052;15.458;2023-07-16T06:37:47;6.88;;;6.57;;
10469;SDS011;5282;47.052;15.458;2023-07-16T06:40:15;6.80;;;6.50;;
10469;SDS011;5282;47.052;15.458;2023-07-16T06:42:42;6.88;;;6.50;;
10469;SDS011;5282;47.052;15.458;2023-07-16T06:45:10;7.20;;;6.85;;
10469;SDS011;5282;47.052;15.458;2023-07-16T06:47:37;6.80;;;6.50;;
10469;SDS011;5282;47.052;15.458;2023-07-16T06:50:04;7.03;;;6.72;;
10469;SDS011;5282;47.052;15.458;2023-07-16T06:52:32;6.63;;;6.32;;
10469;SDS011;5282;47.052;15.458;2023-07-16T06:54:59;6.82;;;6.45;;
10469;SDS011;5282;47.052;15.458;2023-07-16T06:57:27;6.30;;;6.10;;
10469;SDS011;5282;47.052;15.458;2023-07-16T06:59:54;6.97;;;6.47;;
10469;SDS011;5282;47.052;15.458;2023-07-16T07:02:23;6.95;;;6.53;;
10469;SDS011;5282;47.052;15.458;2023-07-16T07:04:50;6.82;;;6.43;;
10469;SDS011;5282;47.052;15.458;2023-07-16T07:07:17;6.97;;;6.50;;
10469;SDS011;5282;47.052;15.458;2023-07-16T07:09:47;6.90;;;6.57;;
10469;SDS011;5282;47.052;15.458;2023-07-16T07:12:13;6.68;;;6.25;;
10469;SDS011;5282;47.052;15.458;2023-07-16T07:14:42;6.07;;;5.88;;
10469;SDS011;5282;47.052;15.458;2023-07-16T07:17:09;6.70;;;6.18;;
10469;SDS011;5282;47.052;15.458;2023-07-16T07:19:36;6.45;;;6.10;;
10469;SDS011;5282;47.052;15.458;2023-07-16T07:22:02;5.75;;;5.45;;
10469;SDS011;5282;47.052;15.458;2023-07-16T07:24:29;5.43;;;5.20;;
10469;SDS011;5282;47.052;15.458;2023-07-16T07:26:56;5.15;;;5.05;;
10469;SDS011;5282;47.052;15.458;2023-07-16T07:29:23;5.13;;;4.90;;
10469;SDS011;5282;47.052;15.458;2023-07-16T07:31:51;4.20;;;4.00;;
10469;SDS011;5282;47.052;15.458;2023-07-16T07:34:19;4.32;;;4.13;;
10469;SDS011;5282;47.052;15.458;2023-07-16T07:36:46;3.70;;;3.60;;
10469;SDS011;5282;47.052;15.458;2023-07-16T07:39:12;4.10;;;4.00;;
10469;SDS011;5282;47.052;15.458;2023-07-16T07:41:39;4.03;;;3.92;;
10469;SDS011;5282;47.052;15.458;2023-07-16T07:44:06;4.18;;;4.07;;
10469;SDS011;5282;47.052;15.458;2023-07-16T07:46:33;3.65;;;3.45;;
10469;SDS011;5282;47.052;15.458;2023-07-16T07:49:01;3.95;;;3.78;;
10469;SDS011;5282;47.052;15.458;2023-07-16T07:51:28;4.35;;;4.15;;
10469;SDS011;5282;47.052;15.458;2023-07-16T07:53:56;3.88;;;3.78;;
10469;SDS011;5282;47.052;15.458;2023-07-16T07:56:23;4.43;;;4.22;;
10469;SDS011;5282;47.052;15.458;2023-07-16T07:58:50;4.43;;;4.32;;
10469;SDS011;5282;47.052;15.458;2023-07-16T08:01:17;4.22;;;3.90;;
10469;SDS011;5282;47.052;15.458;2023-07-16T08:03:44;4.07;;;3.97;;
10469;SDS011;5282;47.052;15.458;2023-07-16T08:06:12;4.32;;;4.22;;
10469;SDS011;5282;47.052;15.458;2023-07-16T08:08:39;4.32;;;4.22;;
10469;SDS011;5282;47.052;15.458;2023-07-16T08:11:06;4.53;;;4.32;;
10469;SDS011;5282;47.052;15.458;2023-07-16T08:13:33;4.10;;;3.88;;
10469;SDS011;5282;47.052;15.458;2023-07-16T08:16:00;4.03;;;3.83;;
10469;SDS011;5282;47.052;15.458;2023-07-16T08:18:27;3.92;;;3.83;;
10469;SDS011;5282;47.052;15.458;2023-07-16T08:20:53;4.47;;;4.38;;
10469;SDS011;5282;47.052;15.458;2023-07-16T08:23:22;4.10;;;3.90;;
10469;SDS011;5282;47.052;15.458;2023-07-16T08:25:49;3.72;;;3.63;;
10469;SDS011;5282;47.052;15.458;2023-07-16T08:28:16;4.35;;;4.15;;
10469;SDS011;5282;47.052;15.458;2023-07-16T08:30:45;4.40;;;4.30;;
10469;SDS011;5282;47.052;15.458;2023-07-16T08:33:13;4.05;;;3.85;;
10469;SDS011;5282;47.052;15.458;2023-07-16T08:35:40;4.25;;;4.15;;
10469;SDS011;5282;47.052;15.458;2023-07-16T08:38:07;4.47;;;4.38;;
10469;SDS011;5282;47.052;15.458;2023-07-16T08:40:36;4.40;;;4.20;;
10469;SDS011;5282;47.052;15.458;2023-07-16T08:43:04;4.28;;;4.15;;
10469;SDS011;5282;47.052;15.458;2023-07-16T08:45:33;4.80;;;4.60;;
10469;SDS011;5282;47.052;15.458;2023-07-16T08:48:07;4.20;;;4.10;;
10469;SDS011;5282;47.052;15.458;2023-07-16T08:50:35;4.65;;;4.50;;
10469;SDS011;5282;47.052;15.458;2023-07-16T08:53:04;4.53;;;4.32;;
10469;SDS011;5282;47.052;15.458;2023-07-16T08:55:31;4.32;;;4.13;;
10469;SDS011;5282;47.052;15.458;2023-07-16T08:57:59;4.32;;;4.10;;
10469;SDS011;5282;47.052;15.458;2023-07-16T09:00:28;4.40;;;4.30;;
10469;SDS011;5282;47.052;15.458;2023-07-16T09:02:56;4.40;;;4.30;;
10469;SDS011;5282;47.052;15.458;2023-07-16T09:05:24;4.95;;;4.70;;
10469;SDS011;5282;47.052;15.458;2023-07-16T09:07:51;5.03;;;4.82;;
10469;SDS011;5282;47.052;15.458;2023-07-16T09:10:18;4.60;;;4.43;;
10469;SDS011;5282;47.052;15.458;2023-07-16T09:12:45;4.70;;;4.60;;
10469;SDS011;5282;47.052;15.458;2023-07-16T09:15:18;4.70;;;4.43;;
10469;SDS011;5282;47.052;15.458;2023-07-16T09:17:48;4.72;;;4.50;;
10469;SDS011;5282;47.052;15.458;2023-07-16T09:20:16;5.03;;;4.75;;
10469;SDS011;5282;47.052;15.458;2023-07-16T09:22:44;5.28;;;5.07;;
10469;SDS011;5282;47.052;15.458;2023-07-16T09:25:11;5.03;;;4.80;;
10469;SDS011;5282;47.052;15.458;2023-07-16T09:27:38;5.22;;;5.03;;
10469;SDS011;5282;47.052;15.458;2023-07-16T09:30:05;4.45;;;4.35;;
10469;SDS011;5282;47.052;15.458;2023-07-16T09:32:35;5.07;;;4.88;;
10469;SDS011;5282;47.052;15.458;2023-07-16T09:35:06;5.13;;;4.93;;
10469;SDS011;5282;47.052;15.458;2023-07-16T09:37:34;4.68;;;4.57;;
10469;SDS011;5282;47.052;15.458;2023-07-16T09:40:03;4.70;;;4.60;;
10469;SDS011;5282;47.052;15.458;2023-07-16T09:42:34;5.03;;;4.82;;
10469;SDS011;5282;47.052;15.458;2023-07-16T09:45:05;5.43;;;4.90;;
10469;SDS011;5282;47.052;15.458;2023-07-16T09:47:36;5.40;;;5.03;;
10469;SDS011;5282;47.052;15.458;2023-07-16T09:50:04;4.60;;;4.50;;
10469;SDS011;5282;47.052;15.458;2023-07-16T09:52:32;5.00;;;4.85;;
10469;SDS011;5282;47.052;15.458;2023-07-16T09:55:00;4.75;;;4.60;;
10469;SDS011;5282;47.052;15.458;2023-07-16T09:57:28;4.90;;;4.75;;
10469;SDS011;5282;47.052;15.458;2023-07-16T09:59:58;4.95;;;4.85;;
10469;SDS011;5282;47.052;15.458;2023-07-16T10:02:30;4.78;;;4.63;;
10469;SDS011;5282;47.052;15.458;2023-07-16T10:04:59;4.93;;;4.82;;
10469;SDS011;5282;47.052;15.458;2023-07-16T10:07:26;4.65;;;4.55;;
10469;SDS011;5282;47.052;15.458;2023-07-16T10:09:53;4.85;;;4.60;;
10469;SDS011;5282;47.052;15.458;2023-07-16T10:12:22;4.45;;;4.35;;
10469;SDS011;5282;47.052;15.458;2023-07-16T10:14:51;4.65;;;4.55;;
10469;SDS011;5282;47.052;15.458;2023-07-16T10:17:19;4.78;;;4.60;;
10469;SDS011;5282;47.052;15.458;2023-07-16T10:19:47;4.93;;;4.82;;
10469;SDS011;5282;47.052;15.458;2023-07-16T10:22:30;4.43;;;4.30;;
10469;SDS011;5282;47.052;15.458;2023-07-16T10:24:58;5.28;;;5.00;;
10469;SDS011;5282;47.052;15.458;2023-07-16T10:27:26;4.75;;;4.65;;
10469;SDS011;5282;47.052;15.458;2023-07-16T10:29:54;4.85;;;4.75;;
10469;SDS011;5282;47.052;15.458;2023-07-16T10:32:21;5.22;;;5.13;;
10469;SDS011;5282;47.052;15.458;2023-07-16T10:34:48;5.30;;;5.10;;
10469;SDS011;5282;47.052;15.458;2023-07-16T10:37:15;5.30;;;5.00;;
10469;SDS011;5282;47.052;15.458;2023-07-16T10:39:47;5.25;;;5.15;;
10469;SDS011;5282;47.052;15.458;2023-07-16T10:42:15;5.30;;;5.20;;
10469;SDS011;5282;47.052;15.458;2023-07-16T10:44:43;5.43;;;5.22;;
10469;SDS011;5282;47.052;15.458;2023-07-16T10:47:17;5.07;;;4.97;;
10469;SDS011;5282;47.052;15.458;2023-07-16T10:49:46;5.13;;;4.97;;
10469;SDS011;5282;47.052;15.458;2023-07-16T10:52:13;5.68;;;5.47;;
10469;SDS011;5282;47.052;15.458;2023-07-16T10:54:40;5.47;;;5.18;;
10469;SDS011;5282;47.052;15.458;2023-07-16T10:57:09;5.57;;;5.38;;
10469;SDS011;5282;47.052;15.458;2023-07-16T10:59:37;5.22;;;5.13;;
10469;SDS011;5282;47.052;15.458;2023-07-16T11:02:05;5.57;;;5.38;;
10469;SDS011;5282;47.052;15.458;2023-07-16T11:04:39;5.07;;;4.97;;
10469;SDS011;5282;47.052;15.458;2023-07-16T11:07:07;5.35;;;5.18;;
10469;SDS011;5282;47.052;15.458;2023-07-16T11:09:39;5.47;;;5.28;;
10469;SDS011;5282;47.052;15.458;2023-07-16T11:12:09;5.63;;;5.43;;
10469;SDS011;5282;47.052;15.458;2023-07-16T11:14:37;5.47;;;5.25;;
10469;SDS011;5282;47.052;15.458;2023-07-16T11:17:05;5.50;;;5.40;;
10469;SDS011;5282;47.052;15.458;2023-07-16T11:19:34;5.53;;;5.32;;
10469;SDS011;5282;47.052;15.458;2023-07-16T11:22:01;5.82;;;5.53;;
10469;SDS011;5282;47.052;15.458;2023-07-16T11:24:35;5.47;;;5.28;;
10469;SDS011;5282;47.052;15.458;2023-07-16T11:27:03;5.68;;;5.28;;
10469;SDS011;5282;47.052;15.458;2023-07-16T11:29:35;5.88;;;5.68;;
10469;SDS011;5282;47.052;15.458;2023-07-16T11:32:02;5.28;;;5.07;;
10469;SDS011;5282;47.052;15.458;2023-07-16T11:34:29;4.97;;;4.78;;
10469;SDS011;5282;47.052;15.458;2023-07-16T11:37:06;5.28;;;5.18;;
10469;SDS011;5282;47.052;15.458;2023-07-16T11:39:34;5.47;;;5.38;;
10469;SDS011;5282;47.052;15.458;2023-07-16T11:42:01;5.32;;;5.05;;
10469;SDS011;5282;47.052;15.458;2023-07-16T11:44:32;5.78;;;5.57;;
10469;SDS011;5282;47.052;15.458;2023-07-16T11:47:02;5.57;;;5.38;;
10469;SDS011;5282;47.052;15.458;2023-07-16T11:49:29;5.60;;;5.40;;
10469;SDS011;5282;47.052;15.458;2023-07-16T11:51:57;5.68;;;5.47;;
10469;SDS011;5282;47.052;15.458;2023-07-16T11:54:24;5.38;;;5.28;;
10469;SDS011;5282;47.052;15.458;2023-07-16T11:56:51;5.85;;;5.65;;
10469;SDS011;5282;47.052;15.458;2023-07-16T11:59:18;5.82;;;5.60;;
10469;SDS011;5282;47.052;15.458;2023-07-16T12:01:48;5.88;;;5.57;;
10469;SDS011;5282;47.052;15.458;2023-07-16T12:04:15;5.88;;;5.57;;
10469;SDS011;5282;47.052;15.458;2023-07-16T12:06:43;5.75;;;5.55;;
10469;SDS011;5282;47.052;15.458;2023-07-16T12:09:10;5.75;;;5.55;;
10469;SDS011;5282;47.052;15.458;2023-07-16T12:11:37;5.72;;;5.50;;
10469;SDS011;5282;47.052;15.458;2023-07-16T12:14:05;5.20;;;5.10;;
10469;SDS011;5282;47.052;15.458;2023-07-16T12:16:32;5.78;;;5.57;;
10469;SDS011;5282;47.052;15.458;2023-07-16T12:19:02;5.50;;;5.30;;
10469;SDS011;5282;47.052;15.458;2023-07-16T12:21:29;5.55;;;5.45;;
10469;SDS011;5282;47.052;15.458;2023-07-16T12:23:56;5.55;;;5.35;;
10469;SDS011;5282;47.052;15.458;2023-07-16T12:26:22;5.63;;;5.43;;
10469;SDS011;5282;47.052;15.458;2023-07-16T12:28:49;5.88;;;5.68;;
10469;SDS011;5282;47.052;15.458;2023-07-16T12:31:16;5.88;;;5.68;;
10469;SDS011;5282;47.052;15.458;2023-07-16T12:33:43;5.35;;;5.25;;
10469;SDS011;5282;47.052;15.458;2023-07-16T12:36:11;5.30;;;5.10;;
10469;SDS011;5282;47.052;15.458;2023-07-16T12:38:39;5.40;;;5.20;;
10469;SDS011;5282;47.052;15.458;2023-07-16T12:41:06;5.22;;;5.03;;
10469;SDS011;5282;47.052;15.458;2023-07-16T12:43:33;5.35;;;5.15;;
10469;SDS011;5282;47.052;15.458;2023-07-16T12:46:00;5.90;;;5.60;;
10469;SDS011;5282;47.052;15.458;2023-07-16T12:48:28;4.90;;;4.80;;
10469;SDS011;5282;47.052;15.458;2023-07-16T12:50:55;5.60;;;5.35;;
10469;SDS011;5282;47.052;15.458;2023-07-16T12:53:24;5.35;;;5.20;;
10469;SDS011;5282;47.052;15.458;2023-07-16T12:55:51;5.07;;;4.97;;
10469;SDS011;5282;47.052;15.458;2023-07-16T12:58:18;5.55;;;5.25;;
10469;SDS011;5282;47.052;15.458;2023-07-16T13:00:46;5.18;;;4.97;;
10469;SDS011;5282;47.052;15.458;2023-07-16T13:03:14;5.60;;;5.43;;
10469;SDS011;5282;47.052;15.458;2023-07-16T13:05:42;5.57;;;5.38;;
10469;SDS011;5282;47.052;15.458;2023-07-16T13:08:11;6.53;;;6.32;;
10469;SDS011;5282;47.052;15.458;2023-07-16T13:10:40;5.80;;;5.60;;
10469;SDS011;5282;47.052;15.458;2023-07-16T13:13:09;5.38;;;5.28;;
10469;SDS011;5282;47.052;15.458;2023-07-16T13:15:37;5.28;;;5.18;;
10469;SDS011;5282;47.052;15.458;2023-07-16T13:18:09;5.10;;;5.00;;
10469;SDS011;5282;47.052;15.458;2023-07-16T13:20:38;5.60;;;5.35;;
10469;SDS011;5282;47.052;15.458;2023-07-16T13:23:07;5.18;;;5.03;;
10469;SDS011;5282;47.052;15.458;2023-07-16T13:25:37;5.85;;;5.55;;
10469;SDS011;5282;47.052;15.458;2023-07-16T13:28:08;5.63;;;5.43;;
10469;SDS011;5282;47.052;15.458;2023-07-16T13:30:36;5.97;;;5.78;;
10469;SDS011;5282;47.052;15.458;2023-07-16T13:33:05;5.43;;;5.30;;
10469;SDS011;5282;47.052;15.458;2023-07-16T13:35:34;5.70;;;5.50;;
10469;SDS011;5282;47.052;15.458;2023-07-16T13:38:03;6.30;;;6.10;;
10469;SDS011;5282;47.052;15.458;2023-07-16T13:40:32;6.30;;;6.10;;
10469;SDS011;5282;47.052;15.458;2023-07-16T13:43:00;5.85;;;5.65;;
10469;SDS011;5282;47.052;15.458;2023-07-16T13:45:30;6.30;;;6.10;;
10469;SDS011;5282;47.052;15.458;2023-07-16T13:48:00;6.18;;;5.97;;
10469;SDS011;5282;47.052;15.458;2023-07-16T13:50:28;6.10;;;5.90;;
10469;SDS011;5282;47.052;15.458;2023-07-16T13:52:57;6.47;;;6.18;;
10469;SDS011;5282;47.052;15.458;2023-07-16T13:55:27;6.25;;;5.95;;
10469;SDS011;5282;47.052;15.458;2023-07-16T13:57:55;6.35;;;5.93;;
10469;SDS011;5282;47.052;15.458;2023-07-16T14:00:24;6.85;;;6.32;;
10469;SDS011;5282;47.052;15.458;2023-07-16T14:02:54;6.90;;;6.63;;
10469;SDS011;5282;47.052;15.458;2023-07-16T14:05:23;6.82;;;6.53;;
10469;SDS011;5282;47.052;15.458;2023-07-16T14:07:52;6.28;;;6.07;;
10469;SDS011;5282;47.052;15.458;2023-07-16T14:10:21;6.85;;;6.65;;
10469;SDS011;5282;47.052;15.458;2023-07-16T14:12:51;6.32;;;6.13;;
10469;SDS011;5282;47.052;15.458;2023-07-16T14:15:19;6.30;;;5.95;;
10469;SDS011;5282;47.052;15.458;2023-07-16T14:17:48;6.60;;;6.30;;
10469;SDS011;5282;47.052;15.458;2023-07-16T14:20:18;6.80;;;6.40;;
10469;SDS011;5282;47.052;15.458;2023-07-16T14:22:46;7.03;;;6.53;;
10469;SDS011;5282;47.052;15.458;2023-07-16T14:25:15;6.20;;;6.00;;
10469;SDS011;5282;47.052;15.458;2023-07-16T14:27:43;6.63;;;6.32;;
10469;SDS011;5282;47.052;15.458;2023-07-16T14:30:13;7.10;;;6.70;;
10469;SDS011;5282;47.052;15.458;2023-07-16T14:32:45;7.20;;;6.80;;
10469;SDS011;5282;47.052;15.458;2023-07-16T14:35:13;6.40;;;6.10;;
10469;SDS011;5282;47.052;15.458;2023-07-16T14:37:46;7.20;;;6.90;;
10469;SDS011;5282;47.052;15.458;2023-07-16T14:40:14;6.68;;;6.45;;
10469;SDS011;5282;47.052;15.458;2023-07-16T14:42:43;7.03;;;6.43;;
10469;SDS011;5282;47.052;15.458;2023-07-16T14:45:12;5.95;;;5.75;;
10469;SDS011;5282;47.052;15.458;2023-07-16T14:47:40;6.75;;;6.50;;
10469;SDS011;5282;47.052;15.458;2023-07-16T14:50:09;6.63;;;6.38;;
10469;SDS011;5282;47.052;15.458;2023-07-16T14:52:38;7.13;;;6.85;;